Time;durP1;ratioP1;P1;durP2;ratioP2;P2;SDS_P1;SDS_P2;PMS_P1;PMS_P2;Temp;Humidity;BMP_temperature;BMP_pressure;BME280_temperature;BME280_humidity;BME280_pressure;Samples;Min_cycle;Max_cycle;Signal;HPM_P1;HPM_P2
2023/10/15 00:00:58;;;;;;;1.90;1.47;;;;;;;8.26;100.00;153481.75;5026748;28;20458;-78
2023/10/15 00:03:25;;;;;;;3.90;1.47;;;;;;;8.23;100.00;153474.03;5026598;28;20451;-77
2023/10/15 00:05:51;;;;;;;3.07;1.97;;;;;;;8.27;100.00;153483.09;5017803;28;20456;-77
2023/10/15 00:08:19;;;;;;;2.77;1.33;;;;;;;8.27;100.00;153484.41;5027826;28;20812;-78
2023/10/15 00:10:47;;;;;;;2.33;1.43;;;;;;;8.20;100.00;153466.28;5032182;28;20540;-77
2023/10/15 00:13:13;;;;;;;2.70;1.53;;;;;;;8.21;100.00;153468.81;5035449;28;20450;-77
2023/10/15 00:15:40;;;;;;;3.23;1.40;;;;;;;8.23;100.00;153474.03;5027172;28;20557;-77
2023/10/15 00:18:09;;;;;;;2.13;1.30;;;;;;;8.22;100.00;153471.44;5028959;28;20883;-77
2023/10/15 00:20:38;;;;;;;4.00;1.70;;;;;;;8.20;100.00;153466.28;5026184;28;20462;-77
2023/10/15 00:23:05;;;;;;;5.20;1.30;;;;;;;8.13;100.00;153448.13;5009802;28;20800;-77
2023/10/15 00:25:35;;;;;;;3.63;1.30;;;;;;;8.11;100.00;153443.00;5026358;28;20456;-77
2023/10/15 00:28:05;;;;;;;2.10;1.37;;;;;;;8.10;100.00;153439.13;5021695;28;20806;-77
2023/10/15 00:30:33;;;;;;;3.10;1.60;;;;;;;8.10;100.00;153439.13;5045833;28;20587;-77
2023/10/15 00:33:03;;;;;;;5.97;1.53;;;;;;;8.07;100.00;153432.66;5047760;28;20463;-77
2023/10/15 00:35:33;;;;;;;5.93;1.33;;;;;;;8.06;100.00;153430.06;5044143;28;20818;-77
2023/10/15 00:38:00;;;;;;;2.80;1.63;;;;;;;8.05;100.00;153426.22;5003993;28;20472;-77
2023/10/15 00:40:28;;;;;;;2.37;1.60;;;;;;;8.05;100.00;153426.22;5026384;28;20488;-77
2023/10/15 00:42:57;;;;;;;2.60;1.30;;;;;;;8.05;100.00;153427.47;5028345;28;20450;-77
2023/10/15 00:45:24;;;;;;;2.87;1.53;;;;;;;8.10;100.00;153440.38;5030473;28;20482;-77
2023/10/15 00:48:02;;;;;;;2.63;1.50;;;;;;;8.13;100.00;153448.13;5011650;28;20459;-77
2023/10/15 00:50:35;;;;;;;2.97;1.40;;;;;;;8.14;100.00;153450.75;5013450;28;20473;-78
2023/10/15 00:53:05;;;;;;;2.07;1.50;;;;;;;8.17;100.00;153457.19;5030757;28;20899;-79
2023/10/15 00:55:35;;;;;;;2.53;1.40;;;;;;;8.18;100.00;153459.81;5027289;28;20460;-78
2023/10/15 00:58:07;;;;;;;4.57;1.70;;;;;;;8.22;100.00;153471.44;5041815;28;20502;-77
2023/10/15 01:00:47;;;;;;;2.40;1.53;;;;;;;8.27;100.00;153483.09;5031321;28;20491;-76
2023/10/15 01:03:14;;;;;;;2.10;1.20;;;;;;;8.28;100.00;153487.00;5031131;28;20817;-76
2023/10/15 01:05:53;;;;;;;2.63;1.50;;;;;;;8.31;100.00;153493.47;5025607;28;20459;-77
2023/10/15 01:08:26;;;;;;;1.60;1.40;;;;;;;8.26;100.00;153481.75;5008049;28;20432;-76
2023/10/15 01:11:08;;;;;;;3.27;1.80;;;;;;;8.26;100.00;153480.50;5023379;28;20483;-78
2023/10/15 01:13:37;;;;;;;2.63;1.70;;;;;;;8.23;100.00;153474.03;5045988;28;20778;-78
2023/10/15 01:16:05;;;;;;;1.80;1.33;;;;;;;8.24;100.00;153476.59;5029437;28;20859;-77
2023/10/15 01:18:33;;;;;;;3.53;1.50;;;;;;;8.28;100.00;153485.69;5010510;28;20974;-78
2023/10/15 01:21:04;;;;;;;1.43;1.20;;;;;;;8.27;100.00;153484.41;5048650;28;20443;-78
2023/10/15 01:23:32;;;;;;;1.87;0.97;;;;;;;8.31;100.00;153494.72;5049154;28;20462;-77
2023/10/15 01:26:00;;;;;;;2.47;1.67;;;;;;;8.32;100.00;153496.00;5049478;28;20439;-77
2023/10/15 01:28:36;;;;;;;1.53;1.33;;;;;;;8.31;100.00;153494.72;5019744;28;20455;-77
2023/10/15 01:31:05;;;;;;;4.30;1.93;;;;;;;8.35;100.00;153505.06;5048705;28;20475;-77
2023/10/15 01:33:36;;;;;;;2.13;1.10;;;;;;;8.36;100.00;153507.69;5035078;28;20562;-77
2023/10/15 01:36:06;;;;;;;3.07;1.70;;;;;;;8.38;100.00;153512.84;5030283;28;20851;-77
2023/10/15 01:38:34;;;;;;;2.40;1.50;;;;;;;8.34;100.00;153502.47;5035780;28;20450;-77
2023/10/15 01:41:04;;;;;;;5.23;1.97;;;;;;;8.32;100.00;153497.31;5031439;28;20462;-77
2023/10/15 01:43:35;;;;;;;3.20;1.80;;;;;;;8.32;100.00;153497.31;5048585;28;20435;-77
2023/10/15 01:46:10;;;;;;;4.20;1.97;;;;;;;8.31;100.00;153494.72;5042832;28;20531;-77
2023/10/15 01:48:39;;;;;;;3.07;1.40;;;;;;;8.30;100.00;153492.16;5024227;28;20443;-77
2023/10/15 01:51:06;;;;;;;2.60;1.90;;;;;;;8.32;100.00;153496.00;5029430;28;20475;-77
2023/10/15 01:53:36;;;;;;;2.33;1.67;;;;;;;8.31;100.00;153493.47;5028370;28;20451;-77
2023/10/15 01:56:04;;;;;;;2.87;1.67;;;;;;;8.31;100.00;153494.72;5028199;28;20455;-77
2023/10/15 01:58:32;;;;;;;4.43;1.70;;;;;;;8.34;100.00;153502.47;5011070;28;20447;-77
2023/10/15 02:01:09;;;;;;;3.80;2.00;;;;;;;8.34;100.00;153502.47;5011702;28;20478;-77
2023/10/15 02:03:37;;;;;;;3.57;2.10;;;;;;;8.30;100.00;153492.16;5010408;28;20411;-77
2023/10/15 02:06:07;;;;;;;2.30;1.53;;;;;;;8.30;100.00;153490.84;5020164;28;20958;-77
2023/10/15 02:08:37;;;;;;;4.17;1.70;;;;;;;8.31;100.00;153494.72;5022264;28;20455;-77
2023/10/15 02:11:15;;;;;;;3.43;1.90;;;;;;;8.29;100.00;153489.56;5034585;28;20827;-77
2023/10/15 02:13:44;;;;;;;2.37;1.80;;;;;;;8.29;100.00;153489.56;5031836;28;20443;-77
2023/10/15 02:16:15;;;;;;;2.07;1.40;;;;;;;8.28;100.00;153485.69;5040243;28;20488;-77
2023/10/15 02:18:44;;;;;;;2.80;1.60;;;;;;;8.28;100.00;153485.69;5008055;28;20454;-77
2023/10/15 02:21:16;;;;;;;3.40;2.00;;;;;;;8.28;100.00;153485.69;5045983;28;20439;-77
2023/10/15 02:23:48;;;;;;;2.00;1.47;;;;;;;8.29;100.00;153488.25;5042230;28;20498;-77
2023/10/15 02:26:18;;;;;;;3.23;1.50;;;;;;;8.29;100.00;153489.56;5028734;28;20451;-77
2023/10/15 02:28:46;;;;;;;3.27;1.60;;;;;;;8.30;100.00;153492.16;5025008;28;20457;-77
2023/10/15 02:31:20;;;;;;;2.77;1.70;;;;;;;8.30;100.00;153490.84;5047815;28;20467;-77
2023/10/15 02:33:46;;;;;;;2.73;1.37;;;;;;;8.30;100.00;153492.16;5047942;28;20431;-77
2023/10/15 02:36:16;;;;;;;4.27;1.60;;;;;;;8.30;100.00;153492.16;5033569;28;20509;-77
2023/10/15 02:38:52;;;;;;;2.10;1.77;;;;;;;8.29;100.00;153489.56;5035347;28;20820;-76
2023/10/15 02:41:20;;;;;;;3.40;1.70;;;;;;;8.34;100.00;153501.22;5019580;28;20446;-77
2023/10/15 02:43:48;;;;;;;2.40;1.60;;;;;;;8.34;100.00;153502.47;5012222;28;20452;-77
2023/10/15 02:46:22;;;;;;;2.40;1.70;;;;;;;8.33;100.00;153499.91;5023843;28;20463;-77
2023/10/15 02:48:49;;;;;;;2.47;1.50;;;;;;;8.34;100.00;153502.47;5026437;28;20451;-77
2023/10/15 02:51:23;;;;;;;3.50;1.90;;;;;;;8.33;100.00;153499.91;5010668;28;20472;-77
2023/10/15 02:53:52;;;;;;;1.77;1.30;;;;;;;8.33;100.00;153499.91;5027357;28;20440;-77
2023/10/15 02:56:21;;;;;;;2.40;1.57;;;;;;;8.34;100.00;153502.47;5030214;28;20510;-77
2023/10/15 02:58:48;;;;;;;3.47;1.73;;;;;;;8.35;100.00;153505.06;5030383;28;20529;-77
2023/10/15 03:01:19;;;;;;;2.50;1.30;;;;;;;8.36;100.00;153507.69;5026528;28;21005;-77
2023/10/15 03:03:49;;;;;;;3.53;2.03;;;;;;;8.38;100.00;153511.53;5010640;28;20440;-77
2023/10/15 03:06:19;;;;;;;2.80;1.37;;;;;;;8.37;100.00;153510.22;5007203;28;20452;-77
2023/10/15 03:08:50;;;;;;;3.13;1.80;;;;;;;8.38;100.00;153512.84;5027179;28;20452;-77
2023/10/15 03:11:19;;;;;;;2.83;1.70;;;;;;;8.41;100.00;153520.59;5025473;28;20479;-77
2023/10/15 03:13:54;;;;;;;5.33;1.90;;;;;;;8.40;100.00;153518.00;5027240;28;20447;-77
2023/10/15 03:16:22;;;;;;;1.90;1.40;;;;;;;8.40;100.00;153518.00;5026844;28;20505;-77
2023/10/15 03:18:50;;;;;;;2.07;1.47;;;;;;;8.40;100.00;153518.00;5040180;28;20463;-77
2023/10/15 03:21:24;;;;;;;3.87;2.00;;;;;;;8.42;100.00;153521.84;5024237;28;20450;-77
2023/10/15 03:23:51;;;;;;;3.27;1.50;;;;;;;8.42;100.00;153521.84;5027083;28;20443;-77
2023/10/15 03:26:21;;;;;;;1.97;1.57;;;;;;;8.45;100.00;153530.91;5026832;28;20431;-77
2023/10/15 03:28:51;;;;;;;3.30;1.50;;;;;;;8.43;100.00;153525.75;5026074;28;20493;-77
2023/10/15 03:31:23;;;;;;;3.57;1.50;;;;;;;8.45;100.00;153530.91;5034190;28;20467;-78
2023/10/15 03:34:16;;;;;;;3.30;1.77;;;;;;;8.44;100.00;153528.34;5026172;28;20478;-78
2023/10/15 03:36:57;;;;;;;2.13;1.60;;;;;;;8.44;100.00;153528.34;5028230;28;20941;-78
2023/10/15 03:39:53;;;;;;;1.70;1.13;;;;;;;8.44;100.00;153528.34;5038360;28;20541;-78
2023/10/15 03:42:18;;;;;;;5.00;2.00;;;;;;;8.43;100.00;153524.47;5029962;28;20478;-78
2023/10/15 03:44:47;;;;;;;1.97;1.50;;;;;;;8.45;100.00;153530.91;5026422;28;20443;-77
2023/10/15 03:47:15;;;;;;;3.47;2.10;;;;;;;8.42;100.00;153523.16;5012746;28;21040;-77
2023/10/15 03:49:44;;;;;;;3.10;1.90;;;;;;;8.44;100.00;153527.06;5032190;28;20459;-77
2023/10/15 03:52:14;;;;;;;2.03;1.40;;;;;;;8.44;100.00;153528.34;5024441;28;20470;-77
2023/10/15 03:54:47;;;;;;;2.33;1.40;;;;;;;8.44;100.00;153528.34;5017978;28;20436;-79
2023/10/15 03:57:17;;;;;;;2.73;1.60;;;;;;;8.43;100.00;153524.47;5025445;28;20452;-77
2023/10/15 03:59:51;;;;;;;3.00;1.50;;;;;;;8.43;100.00;153525.75;5025802;28;20448;-78
2023/10/15 04:02:22;;;;;;;2.00;1.60;;;;;;;8.44;100.00;153528.34;5024640;28;20542;-78
2023/10/15 04:04:56;;;;;;;5.20;2.10;;;;;;;8.45;100.00;153530.91;5022398;28;20463;-78
2023/10/15 04:07:25;;;;;;;2.40;1.67;;;;;;;8.45;100.00;153529.63;5029838;28;20925;-79
2023/10/15 04:09:51;;;;;;;3.00;1.50;;;;;;;8.43;100.00;153524.47;4989687;28;20451;-78
2023/10/15 04:12:19;;;;;;;3.67;1.90;;;;;;;8.42;100.00;153523.16;5025182;28;20471;-78
2023/10/15 04:14:48;;;;;;;2.70;1.83;;;;;;;8.46;100.00;153533.53;5025557;28;20443;-78
2023/10/15 04:17:15;;;;;;;4.33;1.90;;;;;;;8.50;100.00;153543.84;5024189;28;20459;-78
2023/10/15 04:19:43;;;;;;;2.60;1.83;;;;;;;8.51;100.00;153545.13;5031018;28;20522;-78
2023/10/15 04:22:14;;;;;;;4.90;1.67;;;;;;;8.53;100.00;153551.59;5034722;28;20449;-78
2023/10/15 04:24:41;;;;;;;3.03;1.80;;;;;;;8.53;100.00;153551.59;5030056;28;20451;-78
2023/10/15 04:27:14;;;;;;;2.37;1.60;;;;;;;8.54;100.00;153554.19;5031575;28;20444;-78
2023/10/15 04:29:48;;;;;;;3.20;1.63;;;;;;;8.54;100.00;153554.19;5027273;28;20447;-78
2023/10/15 04:32:23;;;;;;;3.07;1.70;;;;;;;8.56;100.00;153559.38;5029024;28;20503;-78
2023/10/15 04:34:53;;;;;;;2.80;2.03;;;;;;;8.53;100.00;153551.59;5028641;28;20524;-78
2023/10/15 04:37:20;;;;;;;1.97;1.43;;;;;;;8.52;100.00;153549.00;5012207;28;20443;-78
2023/10/15 04:39:53;;;;;;;5.43;1.77;;;;;;;8.54;100.00;153554.19;5029934;28;20505;-78
2023/10/15 04:42:30;;;;;;;2.33;1.80;;;;;;;8.56;100.00;153558.06;5040718;28;20448;-78
2023/10/15 04:44:59;;;;;;;1.50;1.23;;;;;;;8.55;100.00;153556.75;5022370;28;20549;-78
2023/10/15 04:47:37;;;;;;;2.50;1.77;;;;;;;8.53;100.00;153550.28;5044947;28;20431;-78
2023/10/15 04:50:14;;;;;;;5.17;2.30;;;;;;;8.56;100.00;153559.38;5040135;28;20494;-78
2023/10/15 04:52:41;;;;;;;4.07;1.77;;;;;;;8.57;100.00;153561.97;5030277;28;20469;-78
2023/10/15 04:55:08;;;;;;;3.60;1.77;;;;;;;8.56;100.00;153558.06;5029304;28;20439;-78
2023/10/15 04:57:35;;;;;;;1.97;1.47;;;;;;;8.57;100.00;153561.97;5027363;28;20505;-78
2023/10/15 05:00:06;;;;;;;1.80;1.30;;;;;;;8.56;100.00;153558.06;5034633;28;20455;-78
2023/10/15 05:02:34;;;;;;;3.10;1.80;;;;;;;8.56;100.00;153559.38;5029052;28;20452;-78
2023/10/15 05:05:01;;;;;;;2.53;1.70;;;;;;;8.57;100.00;153561.97;5040453;28;20479;-78
2023/10/15 05:07:27;;;;;;;2.80;1.87;;;;;;;8.58;100.00;153564.53;4998986;28;20478;-78
2023/10/15 05:09:55;;;;;;;3.50;1.70;;;;;;;8.60;100.00;153567.13;5016795;28;20538;-78
2023/10/15 05:12:21;;;;;;;4.80;2.37;;;;;;;8.60;100.00;153567.13;5017724;28;20959;-78
2023/10/15 05:14:52;;;;;;;4.13;2.17;;;;;;;8.61;100.00;153570.97;5016641;28;21001;-78
2023/10/15 05:17:21;;;;;;;2.77;2.23;;;;;;;8.60;100.00;153568.44;5017372;28;20468;-77
2023/10/15 05:19:53;;;;;;;2.80;1.83;;;;;;;8.55;100.00;153556.75;5032634;28;20471;-77
2023/10/15 05:22:20;;;;;;;4.07;1.97;;;;;;;8.54;100.00;153554.19;5018639;28;20443;-77
2023/10/15 05:24:47;;;;;;;1.67;1.50;;;;;;;8.54;100.00;153554.19;5001149;28;20456;-77
2023/10/15 05:27:14;;;;;;;3.03;1.87;;;;;;;8.54;100.00;153554.19;5015255;28;20455;-77
2023/10/15 05:29:40;;;;;;;5.07;2.20;;;;;;;8.55;100.00;153556.75;5013371;28;20456;-77
2023/10/15 05:32:07;;;;;;;2.17;1.50;;;;;;;8.52;100.00;153549.00;5031985;28;20833;-77
2023/10/15 05:34:34;;;;;;;7.30;1.87;;;;;;;8.53;100.00;153550.28;5002508;28;20452;-77
2023/10/15 05:37:02;;;;;;;2.30;1.90;;;;;;;8.52;100.00;153549.00;5011287;28;20594;-77
2023/10/15 05:39:29;;;;;;;4.77;2.00;;;;;;;8.54;100.00;153552.91;5032350;28;20479;-77
2023/10/15 05:41:55;;;;;;;3.37;2.10;;;;;;;8.55;100.00;153556.75;5001308;28;20456;-77
2023/10/15 05:44:22;;;;;;;3.00;2.10;;;;;;;8.52;100.00;153547.75;5015719;28;20460;-77
2023/10/15 05:46:49;;;;;;;2.63;1.73;;;;;;;8.50;100.00;153542.53;5015289;28;20875;-77
2023/10/15 05:49:15;;;;;;;2.00;1.67;;;;;;;8.51;100.00;153546.44;5000483;28;20460;-77
2023/10/15 05:51:42;;;;;;;2.83;2.00;;;;;;;8.50;100.00;153543.84;5017325;28;21033;-77
2023/10/15 05:54:10;;;;;;;3.20;2.33;;;;;;;8.49;100.00;153541.28;5032960;28;20449;-77
2023/10/15 05:56:36;;;;;;;3.80;2.10;;;;;;;8.49;100.00;153539.97;5013652;28;20451;-77
2023/10/15 05:59:05;;;;;;;3.27;2.10;;;;;;;8.46;100.00;153533.53;4998860;28;20496;-77
2023/10/15 06:01:31;;;;;;;3.67;1.80;;;;;;;8.46;100.00;153533.53;5001924;28;20984;-78
2023/10/15 06:03:58;;;;;;;4.00;2.30;;;;;;;8.44;100.00;153527.06;5017457;28;20455;-78
2023/10/15 06:06:25;;;;;;;2.50;1.97;;;;;;;8.45;100.00;153529.63;5017241;28;20466;-77
2023/10/15 06:08:53;;;;;;;3.30;2.30;;;;;;;8.43;100.00;153525.75;5017199;28;20467;-77
2023/10/15 06:11:21;;;;;;;4.00;2.23;;;;;;;8.44;100.00;153527.06;5016477;28;20866;-77
2023/10/15 06:13:48;;;;;;;2.33;2.13;;;;;;;8.44;100.00;153528.34;5015235;28;20491;-77
2023/10/15 06:16:18;;;;;;;3.10;2.20;;;;;;;8.45;100.00;153530.91;5031069;28;21000;-78
2023/10/15 06:18:44;;;;;;;2.63;2.17;;;;;;;8.46;100.00;153533.53;5030246;28;20532;-77
2023/10/15 06:21:11;;;;;;;4.93;2.60;;;;;;;8.48;100.00;153538.69;5015821;28;20452;-77
2023/10/15 06:23:37;;;;;;;3.30;2.77;;;;;;;8.50;100.00;153543.84;4999272;28;20448;-77
2023/10/15 06:26:04;;;;;;;4.87;2.70;;;;;;;8.52;100.00;153549.00;4999096;28;20456;-78
2023/10/15 06:28:39;;;;;;;7.00;1.90;;;;;;;8.53;100.00;153550.28;5028454;28;20444;-77
2023/10/15 06:31:09;;;;;;;4.67;2.70;;;;;;;8.53;100.00;153551.59;5015726;28;20451;-77
2023/10/15 06:33:37;;;;;;;4.53;2.70;;;;;;;8.56;100.00;153558.06;5014550;28;20476;-77
2023/10/15 06:36:04;;;;;;;5.00;3.10;;;;;;;8.54;100.00;153554.19;5040034;28;20802;-77
2023/10/15 06:38:31;;;;;;;4.97;3.00;;;;;;;8.52;100.00;153549.00;5011289;28;20483;-77
2023/10/15 06:40:57;;;;;;;4.83;3.60;;;;;;;8.52;100.00;153549.00;5014923;28;20578;-77
2023/10/15 06:43:24;;;;;;;5.30;3.30;;;;;;;8.53;100.00;153551.59;5015605;28;20461;-77
2023/10/15 06:45:52;;;;;;;5.50;4.17;;;;;;;8.56;100.00;153558.06;5014611;28;20555;-77
2023/10/15 06:48:22;;;;;;;4.37;3.10;;;;;;;8.60;100.00;153567.13;5013984;28;20782;-77
2023/10/15 06:50:48;;;;;;;6.00;3.57;;;;;;;8.63;100.00;153574.88;5018603;28;20460;-78
2023/10/15 06:53:15;;;;;;;5.10;3.60;;;;;;;8.66;100.00;153582.66;5015869;28;20526;-77
2023/10/15 06:55:45;;;;;;;7.07;3.73;;;;;;;8.69;100.00;153591.66;5013775;28;20814;-78
2023/10/15 06:58:12;;;;;;;4.87;3.90;;;;;;;8.71;100.00;153595.56;5030878;28;20440;-77
2023/10/15 07:00:39;;;;;;;7.53;3.43;;;;;;;8.73;100.00;153602.03;4996420;28;20467;-77
2023/10/15 07:03:07;;;;;;;5.90;3.93;;;;;;;8.81;100.00;153621.41;5014017;28;21104;-77
2023/10/15 07:05:33;;;;;;;5.57;3.80;;;;;;;8.91;100.00;153647.28;5014206;28;20477;-77
2023/10/15 07:08:00;;;;;;;4.03;3.63;;;;;;;8.96;100.00;153661.50;5014987;28;20490;-77
2023/10/15 07:10:27;;;;;;;4.03;2.90;;;;;;;9.00;100.00;153670.56;5014196;28;20471;-77
2023/10/15 07:12:54;;;;;;;5.67;3.50;;;;;;;9.03;100.00;153679.59;5014400;28;21050;-77
2023/10/15 07:15:21;;;;;;;4.37;3.73;;;;;;;9.03;100.00;153678.28;5016027;28;21202;-77
2023/10/15 07:17:50;;;;;;;7.57;3.37;;;;;;;9.06;100.00;153687.34;5031334;28;20517;-78
2023/10/15 07:20:20;;;;;;;4.20;3.27;;;;;;;9.11;100.00;153698.97;5012583;28;20460;-78
2023/10/15 07:22:48;;;;;;;8.07;3.83;;;;;;;9.26;100.00;153737.81;5031519;28;20443;-77
2023/10/15 07:25:16;;;;;;;5.80;3.87;;;;;;;9.87;100.00;153893.06;5016007;28;20451;-77
2023/10/15 07:27:45;;;;;;;4.93;3.70;;;;;;;9.97;100.00;153920.22;5015809;28;20448;-77
2023/10/15 07:30:13;;;;;;;4.57;3.30;;;;;;;10.04;100.00;153937.03;5031751;28;20984;-77
2023/10/15 07:32:40;;;;;;;5.50;3.27;;;;;;;10.64;100.00;154091.16;5016942;28;20522;-77
2023/10/15 07:35:09;;;;;;;4.70;3.43;;;;;;;11.24;100.00;154245.25;5017962;28;20478;-78
2023/10/15 07:37:37;;;;;;;5.43;3.60;;;;;;;11.79;100.00;154387.84;5015975;28;20935;-77
2023/10/15 07:40:06;;;;;;;4.83;3.87;;;;;;;12.27;97.73;154509.69;5015007;28;20473;-78
2023/10/15 07:42:33;;;;;;;4.30;3.87;;;;;;;12.18;94.59;154488.94;5031461;28;20534;-77
2023/10/15 07:45:00;;;;;;;6.60;3.47;;;;;;;12.29;93.77;154516.16;5015448;28;20459;-77
2023/10/15 07:47:27;;;;;;;4.60;3.60;;;;;;;12.18;93.92;154488.94;5016123;28;20817;-78
2023/10/15 07:49:54;;;;;;;5.20;3.30;;;;;;;12.46;93.80;154558.97;4999900;28;20460;-77
2023/10/15 07:52:20;;;;;;;5.63;3.17;;;;;;;12.82;91.69;154653.63;5015714;28;20447;-77
2023/10/15 07:54:49;;;;;;;7.33;3.60;;;;;;;12.84;90.12;154658.81;5017785;28;20883;-77
2023/10/15 07:57:15;;;;;;;5.00;3.17;;;;;;;12.53;89.53;154577.09;5036362;28;20472;-77
2023/10/15 07:59:42;;;;;;;5.13;3.60;;;;;;;12.27;91.82;154509.69;5020622;28;20439;-77
2023/10/15 08:02:09;;;;;;;4.20;2.90;;;;;;;12.01;92.82;154443.59;5036288;28;21097;-77
2023/10/15 08:04:36;;;;;;;3.40;2.70;;;;;;;11.74;93.14;154373.59;5018912;28;20829;-77
2023/10/15 08:07:03;;;;;;;6.00;2.50;;;;;;;11.66;93.44;154352.78;5002046;28;20444;-77
2023/10/15 08:09:30;;;;;;;3.33;2.07;;;;;;;11.56;94.82;154329.50;5019173;28;20460;-77
2023/10/15 08:11:58;;;;;;;4.10;2.00;;;;;;;11.47;95.12;154304.84;5016925;28;20805;-77
2023/10/15 08:14:25;;;;;;;4.57;1.97;;;;;;;11.39;95.51;154285.41;5017558;28;20494;-77
2023/10/15 08:16:51;;;;;;;4.93;1.90;;;;;;;11.33;95.82;154268.59;5019214;28;20462;-76
2023/10/15 08:19:18;;;;;;;2.73;2.10;;;;;;;11.30;96.02;154260.81;5020810;28;20456;-77
2023/10/15 08:21:44;;;;;;;2.83;1.67;;;;;;;11.24;94.08;154246.56;5023740;28;20452;-76
2023/10/15 08:24:14;;;;;;;6.50;2.73;;;;;;;11.26;92.72;154250.44;5016764;28;20448;-77
2023/10/15 08:26:41;;;;;;;3.20;1.40;;;;;;;11.21;93.44;154237.47;5021085;28;21020;-77
2023/10/15 08:29:09;;;;;;;5.83;1.50;;;;;;;11.14;92.37;154219.38;5020349;28;20453;-77
2023/10/15 08:31:36;;;;;;;2.67;1.33;;;;;;;11.00;91.37;154185.69;5016095;28;20451;-78
2023/10/15 08:34:03;;;;;;;6.73;2.00;;;;;;;11.02;93.62;154189.56;5018352;28;20491;-77
2023/10/15 08:36:29;;;;;;;3.50;1.80;;;;;;;11.00;92.99;154184.38;5021281;28;20900;-77
2023/10/15 08:38:56;;;;;;;4.80;1.70;;;;;;;10.96;93.78;154174.06;5020400;28;20490;-77
2023/10/15 08:41:26;;;;;;;3.10;1.93;;;;;;;10.91;94.74;154162.34;5018377;28;20471;-78
2023/10/15 08:43:52;;;;;;;2.10;1.53;;;;;;;10.89;94.56;154155.88;5021202;28;20487;-78
2023/10/15 08:46:22;;;;;;;3.13;1.50;;;;;;;10.94;95.64;154170.13;5018469;28;20452;-77
2023/10/15 08:48:51;;;;;;;2.33;1.80;;;;;;;10.96;94.66;154175.31;5018946;28;20564;-78
2023/10/15 08:51:21;;;;;;;3.50;2.00;;;;;;;11.05;94.46;154196.03;5026508;28;20485;-77
2023/10/15 08:53:48;;;;;;;5.10;2.00;;;;;;;11.02;94.64;154190.84;5018324;28;20829;-77
2023/10/15 08:56:16;;;;;;;2.80;1.70;;;;;;;10.92;91.54;154164.97;5020669;28;20479;-77
2023/10/15 08:58:43;;;;;;;2.70;1.60;;;;;;;10.98;92.18;154180.53;5019056;28;20482;-77
2023/10/15 09:01:13;;;;;;;4.83;1.83;;;;;;;10.93;89.64;154166.28;5020525;28;20451;-77
2023/10/15 09:03:41;;;;;;;2.83;1.10;;;;;;;10.86;91.03;154148.09;5015360;28;20542;-78
2023/10/15 09:06:08;;;;;;;2.13;1.37;;;;;;;10.80;92.50;154133.84;5016917;28;20487;-78
2023/10/15 09:08:41;;;;;;;4.03;1.83;;;;;;;10.77;90.83;154124.81;5018804;28;20467;-78
2023/10/15 09:11:07;;;;;;;4.17;1.27;;;;;;;10.86;91.64;154148.09;5020197;28;20436;-78
2023/10/15 09:13:36;;;;;;;3.00;1.63;;;;;;;10.97;91.92;154177.91;5018572;28;20805;-78
2023/10/15 09:16:04;;;;;;;4.80;1.60;;;;;;;11.02;92.41;154190.84;5018052;28;20448;-78
2023/10/15 09:18:35;;;;;;;6.97;1.93;;;;;;;11.14;93.00;154219.38;5016722;28;20570;-78
2023/10/15 09:21:06;;;;;;;2.20;1.20;;;;;;;11.13;90.23;154216.75;5019467;28;20445;-78
2023/10/15 09:23:35;;;;;;;2.23;1.03;;;;;;;11.04;90.87;154193.47;5019186;28;20541;-78
2023/10/15 09:26:03;;;;;;;1.53;1.10;;;;;;;10.94;93.13;154170.13;5020480;28;20457;-78
2023/10/15 09:28:35;;;;;;;2.70;1.27;;;;;;;10.93;94.73;154167.53;5019411;28;20487;-77
2023/10/15 09:31:05;;;;;;;1.83;1.23;;;;;;;10.93;95.35;154166.28;5015816;28;20510;-78
2023/10/15 09:33:34;;;;;;;1.90;1.13;;;;;;;10.99;97.66;154183.09;5017465;28;20507;-78
2023/10/15 09:36:03;;;;;;;1.97;1.30;;;;;;;10.97;98.80;154176.59;5018409;28;20468;-78
2023/10/15 09:38:32;;;;;;;2.03;1.50;;;;;;;10.91;99.12;154162.34;5016546;28;20479;-77
2023/10/15 09:40:59;;;;;;;2.50;1.23;;;;;;;10.92;99.92;154164.97;5001575;28;20523;-78
2023/10/15 09:43:26;;;;;;;4.43;1.37;;;;;;;10.93;100.00;154167.53;5018131;28;20793;-77
2023/10/15 09:45:54;;;;;;;4.13;2.40;;;;;;;10.94;100.00;154170.13;5001943;28;20483;-77
2023/10/15 09:48:23;;;;;;;2.63;1.60;;;;;;;10.90;99.34;154159.78;5016507;28;20447;-77
2023/10/15 09:50:52;;;;;;;4.60;1.90;;;;;;;10.90;98.68;154159.78;5019642;28;20808;-77
2023/10/15 09:53:21;;;;;;;3.77;1.80;;;;;;;10.88;98.83;154154.56;5016687;28;20464;-78
2023/10/15 09:55:49;;;;;;;3.37;2.03;;;;;;;10.96;99.80;154175.31;5017728;28;20954;-78
2023/10/15 09:58:19;;;;;;;2.97;2.47;;;;;;;11.00;100.00;154184.38;5019256;28;20443;-78
2023/10/15 10:00:57;;;;;;;5.13;2.20;;;;;;;10.87;98.24;154152.03;5034222;28;20468;-78
2023/10/15 10:04:04;;;;;;;3.20;2.10;;;;;;;10.84;96.38;154144.25;5020888;28;20546;-78
2023/10/15 10:07:00;;;;;;;6.90;2.47;;;;;;;10.90;96.44;154159.78;5014866;28;20448;-78
2023/10/15 10:10:10;;;;;;;2.70;2.07;;;;;;;11.00;95.40;154185.69;5016767;28;20521;-78
2023/10/15 10:12:54;;;;;;;3.13;1.63;;;;;;;11.10;97.12;154210.28;4976483;28;21054;-77
2023/10/15 10:15:29;;;;;;;2.63;1.80;;;;;;;11.14;97.19;154219.38;5030756;28;20487;-78
2023/10/15 10:17:56;;;;;;;2.30;1.90;;;;;;;11.25;88.82;154249.13;5033190;28;20502;-77
2023/10/15 10:20:31;;;;;;;2.63;1.90;;;;;;;11.42;89.97;154291.91;5015450;28;20463;-77
2023/10/15 10:23:00;;;;;;;2.37;2.17;;;;;;;11.53;90.97;154321.72;5013430;28;20443;-78
2023/10/15 10:25:31;;;;;;;6.10;1.70;;;;;;;11.51;89.74;154315.25;5014216;28;20467;-78
2023/10/15 10:28:06;;;;;;;3.30;1.57;;;;;;;11.55;89.61;154326.88;5017107;28;20456;-78
2023/10/15 10:30:33;;;;;;;3.97;1.10;;;;;;;11.60;91.64;154338.53;5031288;28;20570;-77
2023/10/15 10:33:03;;;;;;;2.47;1.10;;;;;;;11.50;92.98;154312.63;5001888;28;20466;-77
2023/10/15 10:35:29;;;;;;;1.43;0.83;;;;;;;11.35;87.67;154273.78;5019141;28;20460;-77
2023/10/15 10:38:01;;;;;;;8.63;1.20;;;;;;;11.27;86.96;154253.03;5002981;28;20472;-78
2023/10/15 10:40:47;;;;;;;3.60;1.07;;;;;;;11.15;86.32;154221.94;5022804;28;20492;-78
2023/10/15 10:43:19;;;;;;;3.00;1.53;;;;;;;11.19;91.07;154233.63;5016886;28;20444;-78
2023/10/15 10:45:56;;;;;;;2.20;1.20;;;;;;;11.10;87.35;154210.28;5018151;28;21367;-78
2023/10/15 10:48:24;;;;;;;4.03;1.20;;;;;;;11.14;89.26;154219.38;5024357;28;20448;-78
2023/10/15 10:51:18;;;;;;;3.83;0.93;;;;;;;11.08;85.60;154203.81;5025417;28;20678;-80
2023/10/15 10:54:23;;;;;;;3.97;1.00;;;;;;;11.18;84.70;154229.72;5036125;28;20470;-79
2023/10/15 10:57:06;;;;;;;3.83;1.53;;;;;;;11.25;85.23;154247.88;5020956;28;20458;-79
2023/10/15 10:59:36;;;;;;;2.90;1.20;;;;;;;11.36;83.52;154277.63;5018354;28;20469;-79
2023/10/15 11:02:06;;;;;;;1.70;1.33;;;;;;;11.41;83.71;154290.59;5020606;28;20457;-79
2023/10/15 11:04:32;;;;;;;3.43;1.30;;;;;;;11.48;83.83;154308.75;5021005;28;20846;-78
2023/10/15 11:07:01;;;;;;;2.13;1.07;;;;;;;11.56;81.89;154328.19;5019691;28;20470;-78
2023/10/15 11:09:28;;;;;;;1.50;0.73;;;;;;;11.61;77.70;154341.16;5034791;28;20450;-78
2023/10/15 11:11:56;;;;;;;2.73;1.50;;;;;;;11.52;77.04;154317.81;5022009;28;20449;-78
2023/10/15 11:14:23;;;;;;;2.00;1.20;;;;;;;11.32;75.14;154267.31;5018503;28;20481;-78
2023/10/15 11:16:52;;;;;;;2.93;1.40;;;;;;;11.20;78.50;154234.94;5019530;28;20466;-78
2023/10/15 11:19:19;;;;;;;2.53;1.00;;;;;;;11.07;75.70;154202.50;5018921;28;20456;-79
2023/10/15 11:21:47;;;;;;;1.30;0.80;;;;;;;11.04;77.97;154194.72;5019005;28;20455;-78
2023/10/15 11:24:14;;;;;;;1.37;0.80;;;;;;;10.96;75.63;154175.31;5015849;28;20554;-79
2023/10/15 11:26:42;;;;;;;1.20;0.70;;;;;;;11.08;76.27;154203.81;5019235;28;20456;-79
2023/10/15 11:29:10;;;;;;;1.57;0.90;;;;;;;11.08;77.68;154203.81;5035822;28;20453;-79
2023/10/15 11:31:37;;;;;;;1.23;0.60;;;;;;;11.04;78.75;154193.47;5019803;28;20452;-79
2023/10/15 11:34:06;;;;;;;1.20;0.60;;;;;;;10.98;80.90;154179.22;5015119;28;20486;-79
2023/10/15 11:36:35;;;;;;;2.30;0.80;;;;;;;10.94;80.10;154170.13;5019681;28;20521;-79